North Haven, Connecticut
Current Conditions -  °F | °C
As of 6:53 PM on Monday 22 Dec 2014 (Local Time) from KHVN Reporting Station
Overcast Overcast  
Wind Chill: 44°   Ceiling: 1800
Heat Index: 46°   Visibility: 10mi
Dew Point: 37°   Wind: 5mph
Humidity: 71%   Direction: 30°NNE
Pressure: 30.26"   Gusts: NA
Location:  41.39°N, 72.86°W
Report Text: KHVN 222353Z 03004KT 10SM OVC018 08/03 A3026 RMK AO2 SLP247 T00780028 10083 20072 53000
Loading
Personal Weather Stations






























Interactive Weather Map New forecast layout! Learn more

10-Day Weather Forecast

Advertisements
Track Severe Weather on mobile